Terminal Aerodrome Forecast
Issued by NWS Tuscon, AZ

Home | Current Version | Previous Version | Text Only | Print | Product List | Glossary On
Versions: 1 2 3 4 5 6 7 8 9 10 11 12
000
FTUS45 KTWC 022335
TAFDUG
TAF
KDUG 022335Z 0300/0324 28009KT P6SM VCTS BKN070CB BKN150
     FM030200 35006KT P6SM SCT080 BKN150
     FM030600 VRB04KT P6SM SCT100 SCT200
     FM032000 29006KT P6SM VCTS SCT080CB SCT140=

USA.gov is the U.S. government's official web portal to all federal, state and local government web resources and services.